createdAt,value
2023-03-29T00:02:05.115Z,100.00
2023-03-29T00:04:32.058Z,100.00
2023-03-29T00:07:04.604Z,100.00
2023-03-29T00:09:35.871Z,100.00
2023-03-29T00:12:02.631Z,100.00
2023-03-29T00:14:30.955Z,100.00
2023-03-29T00:16:59.014Z,100.00
2023-03-29T00:19:26.134Z,100.00
2023-03-29T00:21:53.106Z,100.00
2023-03-29T00:24:21.240Z,100.00
2023-03-29T00:26:48.513Z,100.00
2023-03-29T00:29:15.226Z,100.00
2023-03-29T00:31:42.046Z,100.00
2023-03-29T00:34:09.105Z,100.00
2023-03-29T00:36:35.884Z,100.00
2023-03-29T00:39:02.645Z,100.00
2023-03-29T00:41:29.548Z,100.00
2023-03-29T00:44:01.708Z,100.00
2023-03-29T00:46:30.556Z,100.00
2023-03-29T00:49:07.275Z,100.00
2023-03-29T00:51:36.783Z,100.00
2023-03-29T00:54:08.339Z,100.00
2023-03-29T00:56:38.680Z,100.00
2023-03-29T00:59:08.444Z,100.00
2023-03-29T01:01:57.404Z,100.00
2023-03-29T01:05:05.763Z,100.00
2023-03-29T01:07:50.391Z,100.00
2023-03-29T01:10:27.945Z,100.00
2023-03-29T01:13:03.825Z,100.00
2023-03-29T01:15:31.530Z,100.00
2023-03-29T01:18:02.028Z,100.00
2023-03-29T01:20:49.069Z,100.00
2023-03-29T01:23:16.027Z,100.00
2023-03-29T01:26:18.189Z,100.00
2023-03-29T01:28:55.575Z,100.00
2023-03-29T01:31:38.865Z,100.00
2023-03-29T01:34:15.664Z,100.00
2023-03-29T01:37:04.496Z,100.00
2023-03-29T01:39:34.222Z,100.00
2023-03-29T01:42:19.129Z,100.00
2023-03-29T01:44:51.659Z,100.00
2023-03-29T01:47:18.734Z,100.00
2023-03-29T01:50:06.547Z,100.00
2023-03-29T01:52:42.907Z,100.00
2023-03-29T01:55:17.397Z,100.00
2023-03-29T01:57:45.357Z,100.00
2023-03-29T02:00:19.166Z,100.00
2023-03-29T02:02:47.886Z,100.00
2023-03-29T02:05:16.649Z,100.00
2023-03-29T02:07:46.074Z,100.00
2023-03-29T02:10:14.466Z,100.00
2023-03-29T02:12:42.000Z,100.00
2023-03-29T02:15:18.586Z,100.00
2023-03-29T02:17:46.393Z,100.00
2023-03-29T02:20:19.653Z,100.00
2023-03-29T02:23:02.351Z,100.00
2023-03-29T02:25:29.635Z,100.00
2023-03-29T02:27:56.731Z,100.00
2023-03-29T02:30:27.334Z,100.00
2023-03-29T02:33:04.803Z,100.00
2023-03-29T02:35:37.032Z,100.00
2023-03-29T02:38:07.870Z,100.00
2023-03-29T02:40:37.716Z,100.00
2023-03-29T02:43:07.736Z,100.00
2023-03-29T02:45:37.850Z,100.00
2023-03-29T02:48:09.088Z,100.00
2023-03-29T02:50:39.555Z,100.00
2023-03-29T02:53:13.187Z,100.00
2023-03-29T02:55:41.895Z,100.00
2023-03-29T02:58:09.304Z,100.00
2023-03-29T03:00:43.095Z,100.00
2023-03-29T03:03:12.037Z,100.00
2023-03-29T03:05:39.295Z,100.00
2023-03-29T03:08:07.724Z,100.00
2023-03-29T03:10:35.846Z,100.00
2023-03-29T03:13:04.126Z,100.00
2023-03-29T03:15:35.630Z,100.00
2023-03-29T03:18:03.851Z,100.00
2023-03-29T03:20:31.251Z,100.00
2023-03-29T03:22:58.580Z,100.00
2023-03-29T03:25:25.358Z,100.00
2023-03-29T03:27:53.273Z,100.00
2023-03-29T03:30:23.328Z,100.00
2023-03-29T03:33:09.246Z,100.00
2023-03-29T03:36:02.831Z,100.00
2023-03-29T03:38:31.090Z,100.00
2023-03-29T03:41:01.507Z,100.00
2023-03-29T03:43:33.917Z,100.00
2023-03-29T03:46:02.029Z,100.00
2023-03-29T03:48:29.957Z,100.00
2023-03-29T03:51:14.137Z,100.00
2023-03-29T03:53:41.678Z,100.00
2023-03-29T03:56:14.671Z,100.00
2023-03-29T03:59:19.934Z,100.00
2023-03-29T04:01:56.287Z,100.00
2023-03-29T04:04:24.854Z,100.00
2023-03-29T04:07:18.013Z,100.00
2023-03-29T04:10:13.958Z,100.00
2023-03-29T04:12:52.961Z,100.00
2023-03-29T04:15:20.836Z,100.00
2023-03-29T04:18:00.649Z,100.00
2023-03-29T04:20:33.837Z,100.00
2023-03-29T04:23:01.513Z,100.00
2023-03-29T04:25:29.608Z,100.00
2023-03-29T04:28:09.917Z,100.00
2023-03-29T04:30:46.882Z,100.00
2023-03-29T04:33:13.628Z,100.00
2023-03-29T04:35:44.077Z,100.00
2023-03-29T04:38:14.708Z,100.00
2023-03-29T04:40:44.178Z,100.00
2023-03-29T04:43:41.413Z,100.00
2023-03-29T04:46:20.921Z,100.00
2023-03-29T04:49:07.164Z,100.00
2023-03-29T04:51:43.998Z,100.00
2023-03-29T04:54:11.934Z,100.00
2023-03-29T04:56:57.375Z,100.00
2023-03-29T04:59:37.137Z,100.00
2023-03-29T05:02:14.829Z,100.00
2023-03-29T05:04:44.766Z,100.00
2023-03-29T05:07:17.688Z,100.00
2023-03-29T05:09:45.545Z,100.00
2023-03-29T05:12:12.980Z,100.00
2023-03-29T05:14:49.000Z,100.00
2023-03-29T05:17:16.341Z,100.00
2023-03-29T05:19:44.341Z,100.00
2023-03-29T05:22:11.100Z,100.00
2023-03-29T05:24:37.903Z,100.00
2023-03-29T05:27:13.567Z,100.00
2023-03-29T05:29:41.887Z,100.00
2023-03-29T05:32:38.289Z,100.00
2023-03-29T05:35:08.089Z,100.00
2023-03-29T05:37:36.047Z,100.00
2023-03-29T05:40:07.123Z,100.00
2023-03-29T05:42:44.010Z,100.00
2023-03-29T05:45:11.817Z,100.00
2023-03-29T05:47:40.109Z,100.00
2023-03-29T05:50:09.750Z,100.00
2023-03-29T05:52:37.616Z,100.00
2023-03-29T05:55:05.182Z,100.00
2023-03-29T05:57:32.540Z,100.00
2023-03-29T05:59:59.484Z,100.00
2023-03-29T06:02:26.481Z,100.00
2023-03-29T06:04:55.374Z,100.00
2023-03-29T06:07:23.477Z,100.00
2023-03-29T06:10:09.710Z,100.00
2023-03-29T06:12:39.437Z,100.00
2023-03-29T06:15:06.584Z,100.00
2023-03-29T06:17:47.322Z,100.00
2023-03-29T06:20:14.986Z,100.00
2023-03-29T06:22:46.768Z,100.00
2023-03-29T06:25:15.428Z,100.00
2023-03-29T06:27:46.761Z,100.00
2023-03-29T06:30:16.957Z,100.00
2023-03-29T06:32:49.920Z,100.00
2023-03-29T06:35:48.637Z,100.00
2023-03-29T06:38:20.825Z,100.00
2023-03-29T06:41:11.169Z,100.00
2023-03-29T06:44:10.537Z,100.00
2023-03-29T06:46:49.954Z,100.00
2023-03-29T06:49:16.831Z,100.00
2023-03-29T06:52:00.175Z,100.00
2023-03-29T06:54:27.067Z,100.00
2023-03-29T06:57:00.929Z,100.00
2023-03-29T06:59:29.466Z,100.00
2023-03-29T07:01:58.661Z,100.00
2023-03-29T07:04:41.838Z,100.00
2023-03-29T07:07:44.126Z,100.00
2023-03-29T07:10:32.482Z,100.00
2023-03-29T07:13:18.921Z,100.00
2023-03-29T07:15:48.869Z,100.00
2023-03-29T07:18:21.392Z,100.00
2023-03-29T07:20:48.569Z,100.00
2023-03-29T07:23:15.506Z,100.00
2023-03-29T07:25:42.269Z,100.00
2023-03-29T07:28:09.530Z,100.00
2023-03-29T07:30:37.238Z,100.00
2023-03-29T07:33:16.308Z,100.00
2023-03-29T07:35:52.828Z,99.04
2023-03-29T07:38:20.566Z,94.66
2023-03-29T07:41:00.101Z,94.30
2023-03-29T07:43:30.383Z,97.79
2023-03-29T07:46:01.309Z,100.00
2023-03-29T07:48:29.844Z,100.00
2023-03-29T07:51:01.935Z,100.00
2023-03-29T07:53:34.172Z,100.00
2023-03-29T07:56:04.627Z,100.00
2023-03-29T07:58:53.907Z,100.00
2023-03-29T08:01:21.738Z,100.00
2023-03-29T08:04:07.802Z,100.00
2023-03-29T08:06:54.238Z,100.00
2023-03-29T08:09:27.327Z,100.00
2023-03-29T08:11:54.058Z,100.00
2023-03-29T08:14:26.151Z,99.53
2023-03-29T08:17:01.651Z,100.00
2023-03-29T08:19:29.086Z,100.00
2023-03-29T08:22:07.362Z,100.00
2023-03-29T08:24:57.201Z,100.00
2023-03-29T08:27:27.771Z,100.00
2023-03-29T08:29:55.313Z,97.35
2023-03-29T08:32:22.240Z,94.48
2023-03-29T08:34:49.183Z,95.82
2023-03-29T08:37:21.255Z,95.20
2023-03-29T08:39:50.715Z,97.17
2023-03-29T08:43:05.068Z,98.37
2023-03-29T08:46:08.631Z,96.83
2023-03-29T08:48:42.317Z,96.32
2023-03-29T08:51:16.738Z,95.06
2023-03-29T08:53:48.750Z,94.49
2023-03-29T08:56:31.438Z,95.32
2023-03-29T08:59:22.618Z,91.41
2023-03-29T09:01:53.196Z,89.57
2023-03-29T09:04:27.018Z,97.07
2023-03-29T09:07:13.082Z,95.73
2023-03-29T09:09:43.976Z,90.61
2023-03-29T09:12:42.845Z,94.80
2023-03-29T09:15:22.083Z,92.40
2023-03-29T09:18:44.849Z,87.74
2023-03-29T09:21:31.660Z,87.97
2023-03-29T09:24:20.912Z,91.63
2023-03-29T09:27:20.225Z,98.80
2023-03-29T09:30:15.303Z,99.78
2023-03-29T09:33:07.978Z,95.06
2023-03-29T09:36:01.100Z,88.90
2023-03-29T09:38:31.197Z,89.26
2023-03-29T09:41:26.704Z,92.37
2023-03-29T09:43:56.984Z,82.77
2023-03-29T09:46:34.424Z,85.30
2023-03-29T09:49:04.681Z,83.67
2023-03-29T09:51:34.412Z,76.21
2023-03-29T09:54:01.427Z,77.65
2023-03-29T09:56:53.517Z,75.88
2023-03-29T09:59:21.642Z,72.58
2023-03-29T10:01:48.448Z,74.60
2023-03-29T10:04:16.906Z,75.48
2023-03-29T10:06:52.336Z,78.13
2023-03-29T10:09:21.979Z,77.13
2023-03-29T10:11:57.164Z,77.21
2023-03-29T10:14:37.147Z,66.94
2023-03-29T10:17:15.868Z,73.54
2023-03-29T10:19:57.031Z,74.15
2023-03-29T10:22:33.003Z,73.83
2023-03-29T10:24:59.708Z,74.51
2023-03-29T10:27:32.094Z,78.11
2023-03-29T10:30:00.756Z,73.06
2023-03-29T10:32:34.889Z,75.52
2023-03-29T10:35:20.113Z,74.43
2023-03-29T10:37:51.956Z,72.51
2023-03-29T10:40:32.222Z,73.27
2023-03-29T10:43:21.466Z,72.40
2023-03-29T10:45:50.907Z,74.72
2023-03-29T10:48:19.548Z,72.56
2023-03-29T10:50:53.229Z,77.23
2023-03-29T10:53:27.017Z,79.87
2023-03-29T10:56:10.214Z,78.55
2023-03-29T10:58:48.266Z,78.88
2023-03-29T11:01:32.384Z,72.72
2023-03-29T11:04:16.027Z,75.36
2023-03-29T11:07:19.736Z,76.76
2023-03-29T11:10:26.036Z,72.72
2023-03-29T11:13:12.930Z,72.93
2023-03-29T11:16:21.752Z,72.39
2023-03-29T11:19:01.899Z,69.65
2023-03-29T11:21:37.235Z,68.73
2023-03-29T11:24:10.001Z,68.79
2023-03-29T11:27:09.507Z,66.62
2023-03-29T11:30:00.382Z,67.09
2023-03-29T11:32:39.536Z,59.82
2023-03-29T11:35:19.163Z,64.69
2023-03-29T11:38:03.498Z,56.59
2023-03-29T11:40:53.803Z,61.34
2023-03-29T11:43:59.438Z,58.49
2023-03-29T11:46:35.653Z,59.96
2023-03-29T11:49:25.505Z,58.24
2023-03-29T11:52:00.770Z,57.37
2023-03-29T11:54:31.564Z,59.17
2023-03-29T11:57:02.293Z,58.03
2023-03-29T11:59:51.361Z,57.73
2023-03-29T12:02:57.290Z,57.39
2023-03-29T12:05:54.389Z,58.72
2023-03-29T12:08:51.348Z,56.04
2023-03-29T12:11:49.171Z,57.45
2023-03-29T12:14:27.767Z,55.44
2023-03-29T12:17:03.759Z,58.67
2023-03-29T12:19:43.496Z,57.55
2023-03-29T12:22:11.062Z,55.92
2023-03-29T12:24:46.234Z,53.41
2023-03-29T12:27:34.674Z,49.08
2023-03-29T12:30:10.365Z,45.89
2023-03-29T12:32:46.503Z,46.78
2023-03-29T12:35:38.996Z,45.27
2023-03-29T12:38:31.064Z,45.60
2023-03-29T12:41:28.402Z,45.17
2023-03-29T12:44:16.562Z,48.89
2023-03-29T12:46:59.952Z,45.73
2023-03-29T12:49:34.281Z,46.63
2023-03-29T12:52:07.214Z,46.95
2023-03-29T12:54:34.175Z,46.69
2023-03-29T12:57:21.692Z,46.81
2023-03-29T12:59:49.696Z,48.21
2023-03-29T13:02:17.747Z,45.65
2023-03-29T13:04:57.766Z,47.83
2023-03-29T13:07:26.471Z,46.15
2023-03-29T13:09:54.566Z,43.81
2023-03-29T13:12:35.671Z,45.71
2023-03-29T13:15:05.485Z,42.12
2023-03-29T13:17:50.072Z,42.47
2023-03-29T13:20:38.636Z,39.35
2023-03-29T13:23:17.890Z,42.21
2023-03-29T13:26:03.193Z,42.15
2023-03-29T13:28:46.038Z,41.78
2023-03-29T13:31:40.287Z,40.86
2023-03-29T13:34:19.992Z,42.67
2023-03-29T13:36:58.753Z,43.32
2023-03-29T13:39:30.949Z,44.04
2023-03-29T13:42:32.859Z,44.60
2023-03-29T13:45:15.407Z,45.65
2023-03-29T13:47:54.866Z,46.81
2023-03-29T13:50:52.864Z,46.92
2023-03-29T13:53:31.341Z,44.41
2023-03-29T13:55:59.269Z,44.88
2023-03-29T13:58:51.304Z,42.85
2023-03-29T14:01:40.833Z,43.94
2023-03-29T14:04:14.762Z,45.01
2023-03-29T14:06:45.711Z,44.05
2023-03-29T14:09:14.494Z,44.34
2023-03-29T14:11:44.978Z,46.13
2023-03-29T14:14:12.216Z,46.21
2023-03-29T14:16:40.062Z,44.32
2023-03-29T14:19:21.844Z,43.13
2023-03-29T14:21:50.436Z,45.75
2023-03-29T14:24:22.446Z,43.32
2023-03-29T14:26:49.860Z,43.46
2023-03-29T14:29:18.227Z,43.95
2023-03-29T14:31:45.121Z,44.15
2023-03-29T14:34:19.410Z,41.77
2023-03-29T14:36:49.400Z,44.61
2023-03-29T14:39:19.254Z,44.04
2023-03-29T14:41:53.314Z,46.25
2023-03-29T14:44:27.142Z,46.35
2023-03-29T14:46:55.305Z,47.17
2023-03-29T14:49:23.265Z,45.63
2023-03-29T14:51:52.146Z,44.77
2023-03-29T14:54:32.764Z,47.55
2023-03-29T14:57:03.438Z,47.29
2023-03-29T14:59:43.051Z,49.91
2023-03-29T15:02:26.545Z,46.76
2023-03-29T15:05:05.576Z,47.32
2023-03-29T15:07:34.960Z,47.53
2023-03-29T15:10:05.375Z,48.74
2023-03-29T15:12:33.546Z,48.79
2023-03-29T15:15:01.521Z,49.79
2023-03-29T15:17:47.664Z,50.88
2023-03-29T15:20:24.073Z,51.08
2023-03-29T15:23:02.138Z,50.11
2023-03-29T15:25:35.454Z,50.97
2023-03-29T15:28:02.253Z,50.62
2023-03-29T15:30:38.122Z,51.21
2023-03-29T15:33:15.186Z,53.05
2023-03-29T15:35:45.210Z,55.11
2023-03-29T15:38:14.688Z,54.58
2023-03-29T15:40:41.895Z,55.43
2023-03-29T15:43:08.605Z,54.98
2023-03-29T15:45:35.316Z,54.80
2023-03-29T15:48:07.793Z,55.43
2023-03-29T15:50:35.088Z,54.14
2023-03-29T15:53:12.605Z,54.80
2023-03-29T15:55:46.205Z,55.06
2023-03-29T15:58:19.031Z,55.93
2023-03-29T16:00:52.651Z,56.59
2023-03-29T16:03:19.660Z,56.94
2023-03-29T16:05:46.505Z,57.92
2023-03-29T16:08:16.623Z,58.74
2023-03-29T16:10:43.999Z,58.91
2023-03-29T16:13:13.516Z,59.40
2023-03-29T16:15:41.914Z,59.07
2023-03-29T16:18:09.259Z,60.05
2023-03-29T16:20:36.154Z,62.13
2023-03-29T16:23:08.693Z,62.21
2023-03-29T16:25:38.399Z,65.86
2023-03-29T16:28:06.028Z,67.01
2023-03-29T16:30:33.391Z,66.07
2023-03-29T16:33:01.162Z,67.18
2023-03-29T16:35:32.134Z,65.52
2023-03-29T16:37:59.036Z,64.98
2023-03-29T16:40:26.099Z,63.58
2023-03-29T16:42:52.856Z,67.01
2023-03-29T16:45:20.274Z,68.56
2023-03-29T16:47:47.255Z,73.71
2023-03-29T16:50:16.506Z,77.14
2023-03-29T16:52:43.748Z,75.79
2023-03-29T16:55:12.752Z,74.46
2023-03-29T16:57:40.194Z,75.16
2023-03-29T17:00:11.281Z,78.93
2023-03-29T17:02:38.090Z,80.56
2023-03-29T17:05:06.106Z,83.22
2023-03-29T17:07:33.587Z,81.58
2023-03-29T17:10:00.694Z,78.10
2023-03-29T17:12:27.279Z,73.95
2023-03-29T17:14:53.968Z,73.85
2023-03-29T17:17:20.718Z,77.11
2023-03-29T17:19:47.417Z,78.13
2023-03-29T17:22:14.324Z,86.98
2023-03-29T17:24:41.490Z,91.22
2023-03-29T17:27:08.475Z,88.91
2023-03-29T17:29:35.325Z,90.97
2023-03-29T17:32:02.543Z,89.25
2023-03-29T17:34:29.288Z,88.68
2023-03-29T17:36:56.970Z,92.41
2023-03-29T17:39:25.159Z,87.67
2023-03-29T17:41:52.186Z,89.83
2023-03-29T17:44:19.556Z,88.04
2023-03-29T17:46:46.754Z,86.52
2023-03-29T17:49:14.896Z,86.41
2023-03-29T17:51:41.730Z,87.79
2023-03-29T17:54:08.512Z,90.25
2023-03-29T17:56:35.371Z,87.48
2023-03-29T17:59:02.166Z,90.26
2023-03-29T18:01:29.356Z,91.41
2023-03-29T18:03:55.945Z,95.29
2023-03-29T18:06:23.794Z,100.00
2023-03-29T18:08:53.132Z,100.00
2023-03-29T18:11:24.757Z,100.00
2023-03-29T18:13:52.590Z,100.00
2023-03-29T18:16:20.913Z,100.00
2023-03-29T18:18:48.301Z,100.00
2023-03-29T18:21:16.340Z,100.00
2023-03-29T18:23:47.668Z,100.00
2023-03-29T18:26:16.417Z,100.00
2023-03-29T18:28:46.959Z,100.00
2023-03-29T18:31:14.930Z,100.00
2023-03-29T18:33:41.870Z,100.00
2023-03-29T18:36:12.930Z,100.00
2023-03-29T18:38:43.149Z,100.00
2023-03-29T18:41:12.241Z,100.00
2023-03-29T18:43:39.947Z,100.00
2023-03-29T18:46:08.233Z,100.00
2023-03-29T18:48:39.054Z,100.00
2023-03-29T18:51:07.515Z,100.00
2023-03-29T18:53:35.572Z,100.00
2023-03-29T18:56:03.534Z,100.00
2023-03-29T18:58:31.287Z,100.00
2023-03-29T19:01:03.726Z,100.00
2023-03-29T19:03:32.672Z,100.00
2023-03-29T19:05:59.562Z,100.00
2023-03-29T19:08:26.671Z,100.00
2023-03-29T19:10:59.961Z,100.00
2023-03-29T19:13:27.160Z,100.00
2023-03-29T19:15:53.907Z,100.00
2023-03-29T19:18:21.983Z,100.00
2023-03-29T19:20:51.319Z,100.00
2023-03-29T19:23:18.333Z,100.00
2023-03-29T19:25:54.012Z,100.00
2023-03-29T19:28:20.716Z,100.00
2023-03-29T19:30:47.506Z,100.00
2023-03-29T19:33:14.675Z,100.00
2023-03-29T19:35:41.784Z,100.00
2023-03-29T19:38:08.706Z,100.00
2023-03-29T19:40:36.561Z,100.00
2023-03-29T19:43:03.762Z,100.00
2023-03-29T19:45:30.736Z,100.00
2023-03-29T19:48:02.532Z,100.00
2023-03-29T19:50:31.646Z,100.00
2023-03-29T19:52:58.578Z,100.00
2023-03-29T19:55:26.479Z,100.00
2023-03-29T19:57:53.265Z,100.00
2023-03-29T20:00:24.470Z,100.00
2023-03-29T20:02:52.590Z,100.00
2023-03-29T20:05:20.213Z,100.00
2023-03-29T20:07:47.105Z,100.00
2023-03-29T20:10:14.323Z,100.00
2023-03-29T20:12:41.127Z,100.00
2023-03-29T20:15:08.538Z,100.00
2023-03-29T20:17:35.654Z,100.00
2023-03-29T20:20:08.283Z,100.00
2023-03-29T20:22:42.348Z,100.00
2023-03-29T20:25:09.938Z,100.00
2023-03-29T20:27:37.211Z,100.00
2023-03-29T20:30:04.669Z,100.00
2023-03-29T20:32:31.423Z,100.00
2023-03-29T20:34:58.290Z,100.00
2023-03-29T20:37:25.900Z,100.00
2023-03-29T20:39:53.613Z,100.00
2023-03-29T20:42:24.499Z,100.00
2023-03-29T20:44:51.409Z,100.00
2023-03-29T20:47:19.323Z,100.00
2023-03-29T20:49:46.088Z,100.00
2023-03-29T20:52:15.532Z,100.00
2023-03-29T20:54:43.895Z,100.00
2023-03-29T20:57:16.088Z,100.00
2023-03-29T20:59:44.031Z,100.00
2023-03-29T21:02:20.940Z,100.00
2023-03-29T21:04:52.756Z,100.00
2023-03-29T21:07:21.487Z,100.00
2023-03-29T21:09:50.137Z,100.00
2023-03-29T21:12:17.568Z,100.00
2023-03-29T21:14:44.851Z,100.00
2023-03-29T21:17:11.692Z,100.00
2023-03-29T21:19:39.554Z,100.00
2023-03-29T21:22:06.759Z,100.00
2023-03-29T21:24:36.483Z,100.00
2023-03-29T21:27:03.309Z,100.00
2023-03-29T21:29:29.990Z,100.00
2023-03-29T21:31:56.936Z,100.00
2023-03-29T21:34:23.898Z,100.00
2023-03-29T21:36:50.723Z,100.00
2023-03-29T21:39:17.437Z,100.00
2023-03-29T21:41:44.332Z,100.00
2023-03-29T21:44:11.738Z,100.00
2023-03-29T21:46:38.655Z,100.00
2023-03-29T21:49:05.502Z,100.00
2023-03-29T21:51:32.703Z,100.00
2023-03-29T21:53:59.452Z,100.00
2023-03-29T21:56:26.392Z,100.00
2023-03-29T21:58:53.075Z,100.00
2023-03-29T22:01:20.056Z,100.00
2023-03-29T22:03:47.533Z,100.00
2023-03-29T22:06:14.660Z,100.00
2023-03-29T22:08:41.334Z,100.00
2023-03-29T22:11:11.081Z,100.00
2023-03-29T22:13:37.924Z,100.00
2023-03-29T22:16:05.166Z,100.00
2023-03-29T22:18:43.212Z,100.00
2023-03-29T22:21:13.919Z,100.00
2023-03-29T22:23:45.893Z,100.00
2023-03-29T22:26:14.176Z,100.00
2023-03-29T22:28:41.736Z,100.00
2023-03-29T22:31:11.451Z,100.00
2023-03-29T22:33:39.232Z,100.00
2023-03-29T22:36:19.224Z,100.00
2023-03-29T22:38:47.008Z,100.00
2023-03-29T22:41:16.991Z,100.00
2023-03-29T22:43:44.179Z,100.00
2023-03-29T22:46:12.891Z,100.00
2023-03-29T22:48:40.129Z,100.00
2023-03-29T22:51:06.955Z,100.00
2023-03-29T22:53:34.174Z,100.00
2023-03-29T22:56:00.950Z,100.00
2023-03-29T22:58:29.476Z,100.00
2023-03-29T23:00:57.925Z,100.00
2023-03-29T23:03:24.930Z,100.00
2023-03-29T23:05:56.448Z,100.00
2023-03-29T23:08:24.323Z,100.00
2023-03-29T23:10:51.640Z,100.00
2023-03-29T23:13:25.981Z,100.00
2023-03-29T23:15:57.961Z,100.00
2023-03-29T23:18:25.025Z,100.00
2023-03-29T23:20:54.646Z,100.00
2023-03-29T23:23:22.784Z,100.00
2023-03-29T23:25:51.120Z,100.00
2023-03-29T23:28:21.764Z,100.00
2023-03-29T23:31:03.275Z,100.00
2023-03-29T23:33:33.658Z,100.00
2023-03-29T23:36:05.735Z,100.00
2023-03-29T23:38:34.342Z,100.00
2023-03-29T23:41:03.246Z,100.00
2023-03-29T23:43:33.123Z,100.00
2023-03-29T23:46:16.897Z,100.00
2023-03-29T23:48:45.956Z,100.00
2023-03-29T23:51:12.970Z,100.00
2023-03-29T23:53:39.809Z,100.00
2023-03-29T23:56:07.753Z,100.00
2023-03-29T23:58:37.418Z,100.00
